Terminal Aerodrome Forecast
Issued by NWS Cleveland, OH

Home | Current Version | Previous Version | Graphics & Text | Print | Product List | Glossary On
Versions: 1 2 3 4 5 6 7 8 9 10 11 12 13 14
000
FTUS41 KCLE 291134
TAFERI
TAF
KERI 291134Z 2912/3012 17007KT P6SM SCT100
     FM291800 29007KT P6SM SCT040 BKN250
     FM300100 25007KT P6SM SCT060 BKN250=

USA.gov is the U.S. government's official web portal to all federal, state and local government web resources and services.